sensor_id;sensor_type;location;lat;lon;timestamp;pressure;altitude;pressure_sealevel;temperature;humidity
57801;BME280;43627;42.728;23.256;2023-03-23T00:00:07;94948.06;;;4.36;100.00
57801;BME280;43627;42.728;23.256;2023-03-23T00:02:34;94960.66;;;4.58;100.00
57801;BME280;43627;42.728;23.256;2023-03-23T00:05:07;94943.00;;;4.54;100.00
57801;BME280;43627;42.728;23.256;2023-03-23T00:07:33;94912.31;;;4.48;100.00
57801;BME280;43627;42.728;23.256;2023-03-23T00:09:59;94934.69;;;4.65;100.00
57801;BME280;43627;42.728;23.256;2023-03-23T00:12:30;94911.31;;;4.42;100.00
57801;BME280;43627;42.728;23.256;2023-03-23T00:15:07;94871.50;;;4.29;100.00
57801;BME280;43627;42.728;23.256;2023-03-23T00:17:39;94907.25;;;4.50;100.00
57801;BME280;43627;42.728;23.256;2023-03-23T00:20:06;94824.22;;;4.09;100.00
57801;BME280;43627;42.728;23.256;2023-03-23T00:22:32;94942.72;;;4.97;100.00
57801;BME280;43627;42.728;23.256;2023-03-23T00:25:04;94946.13;;;4.85;100.00
57801;BME280;43627;42.728;23.256;2023-03-23T00:27:29;94903.28;;;4.54;100.00
57801;BME280;43627;42.728;23.256;2023-03-23T00:29:55;94813.53;;;3.89;100.00
57801;BME280;43627;42.728;23.256;2023-03-23T00:32:23;94963.53;;;4.68;100.00
57801;BME280;43627;42.728;23.256;2023-03-23T00:34:57;94963.28;;;4.62;100.00
57801;BME280;43627;42.728;23.256;2023-03-23T00:37:26;94954.94;;;4.40;100.00
57801;BME280;43627;42.728;23.256;2023-03-23T00:39:52;94945.13;;;4.14;100.00
57801;BME280;43627;42.728;23.256;2023-03-23T00:42:22;94952.78;;;3.99;100.00
57801;BME280;43627;42.728;23.256;2023-03-23T00:44:48;94975.78;;;4.04;100.00
57801;BME280;43627;42.728;23.256;2023-03-23T00:47:15;94969.25;;;3.85;100.00
57801;BME280;43627;42.728;23.256;2023-03-23T00:49:42;94903.31;;;3.33;100.00
57801;BME280;43627;42.728;23.256;2023-03-23T00:52:09;94922.59;;;3.32;100.00
57801;BME280;43627;42.728;23.256;2023-03-23T00:54:35;94908.44;;;3.08;100.00
57801;BME280;43627;42.728;23.256;2023-03-23T00:57:03;94916.16;;;3.06;100.00
57801;BME280;43627;42.728;23.256;2023-03-23T00:59:29;94980.72;;;3.53;100.00
57801;BME280;43627;42.728;23.256;2023-03-23T01:01:55;94886.75;;;2.75;100.00
57801;BME280;43627;42.728;23.256;2023-03-23T01:04:20;94926.44;;;2.91;100.00
57801;BME280;43627;42.728;23.256;2023-03-23T01:06:49;94980.88;;;3.22;100.00
57801;BME280;43627;42.728;23.256;2023-03-23T01:09:16;94939.50;;;2.93;100.00
57801;BME280;43627;42.728;23.256;2023-03-23T01:11:45;94990.03;;;3.28;100.00
57801;BME280;43627;42.728;23.256;2023-03-23T01:14:13;94973.41;;;3.10;100.00
57801;BME280;43627;42.728;23.256;2023-03-23T01:16:39;94977.38;;;3.25;100.00
57801;BME280;43627;42.728;23.256;2023-03-23T01:19:05;94958.78;;;3.11;100.00
57801;BME280;43627;42.728;23.256;2023-03-23T01:21:31;94979.13;;;3.35;100.00
57801;BME280;43627;42.728;23.256;2023-03-23T01:23:57;94971.25;;;3.44;100.00
57801;BME280;43627;42.728;23.256;2023-03-23T01:26:25;94948.97;;;3.40;100.00
57801;BME280;43627;42.728;23.256;2023-03-23T01:28:51;94964.97;;;3.51;100.00
57801;BME280;43627;42.728;23.256;2023-03-23T01:31:20;94956.25;;;3.43;100.00
57801;BME280;43627;42.728;23.256;2023-03-23T01:33:47;94901.72;;;3.16;100.00
57801;BME280;43627;42.728;23.256;2023-03-23T01:36:16;94974.31;;;3.83;100.00
57801;BME280;43627;42.728;23.256;2023-03-23T01:38:46;94976.50;;;3.88;100.00
57801;BME280;43627;42.728;23.256;2023-03-23T01:41:12;94972.25;;;3.90;100.00
57801;BME280;43627;42.728;23.256;2023-03-23T01:46:28;94908.72;;;3.33;100.00
57801;BME280;43627;42.728;23.256;2023-03-23T01:48:57;94957.38;;;3.82;100.00
57801;BME280;43627;42.728;23.256;2023-03-23T01:51:24;94912.59;;;3.68;100.00
57801;BME280;43627;42.728;23.256;2023-03-23T01:53:55;94868.34;;;3.30;100.00
57801;BME280;43627;42.728;23.256;2023-03-23T01:56:24;94887.31;;;3.62;100.00
57801;BME280;43627;42.728;23.256;2023-03-23T01:58:53;94957.59;;;4.24;100.00
57801;BME280;43627;42.728;23.256;2023-03-23T02:01:19;94855.44;;;3.57;100.00
57801;BME280;43627;42.728;23.256;2023-03-23T02:03:47;94953.72;;;4.25;100.00
57801;BME280;43627;42.728;23.256;2023-03-23T02:06:14;94976.25;;;4.35;100.00
57801;BME280;43627;42.728;23.256;2023-03-23T02:08:41;94856.72;;;3.69;100.00
57801;BME280;43627;42.728;23.256;2023-03-23T02:11:18;94915.59;;;4.23;100.00
57801;BME280;43627;42.728;23.256;2023-03-23T02:13:45;94824.59;;;3.42;100.00
57801;BME280;43627;42.728;23.256;2023-03-23T02:24:31;94959.88;;;4.25;100.00
57801;BME280;43627;42.728;23.256;2023-03-23T02:27:25;94968.69;;;4.29;100.00
57801;BME280;43627;42.728;23.256;2023-03-23T02:35:54;94857.59;;;3.10;100.00
57801;BME280;43627;42.728;23.256;2023-03-23T02:38:44;94941.69;;;3.77;100.00
57801;BME280;43627;42.728;23.256;2023-03-23T02:41:19;94925.66;;;3.70;100.00
57801;BME280;43627;42.728;23.256;2023-03-23T02:43:47;94940.81;;;3.64;100.00
57801;BME280;43627;42.728;23.256;2023-03-23T02:46:15;94960.56;;;3.77;100.00
57801;BME280;43627;42.728;23.256;2023-03-23T02:48:43;94955.38;;;3.66;100.00
57801;BME280;43627;42.728;23.256;2023-03-23T02:51:10;94954.38;;;3.60;100.00
57801;BME280;43627;42.728;23.256;2023-03-23T02:53:40;94978.06;;;3.69;100.00
57801;BME280;43627;42.728;23.256;2023-03-23T02:56:08;94978.75;;;3.73;100.00
57801;BME280;43627;42.728;23.256;2023-03-23T02:58:36;94965.00;;;3.48;100.00
57801;BME280;43627;42.728;23.256;2023-03-23T03:04:13;94897.53;;;3.15;100.00
57801;BME280;43627;42.728;23.256;2023-03-23T03:07:04;94888.31;;;2.93;100.00
57801;BME280;43627;42.728;23.256;2023-03-23T03:10:50;94993.22;;;3.63;100.00
57801;BME280;43627;42.728;23.256;2023-03-23T03:15:36;94991.06;;;3.34;100.00
57801;BME280;43627;42.728;23.256;2023-03-23T03:18:07;94993.06;;;3.30;100.00
57801;BME280;43627;42.728;23.256;2023-03-23T03:20:40;94990.53;;;3.23;100.00
57801;BME280;43627;42.728;23.256;2023-03-23T03:23:10;94954.47;;;2.94;100.00
57801;BME280;43627;42.728;23.256;2023-03-23T03:25:39;94987.19;;;3.15;100.00
57801;BME280;43627;42.728;23.256;2023-03-23T03:28:07;94938.13;;;2.61;100.00
57801;BME280;43627;42.728;23.256;2023-03-23T03:30:35;94903.28;;;2.31;100.00
57801;BME280;43627;42.728;23.256;2023-03-23T03:33:02;94886.25;;;2.14;100.00
57801;BME280;43627;42.728;23.256;2023-03-23T03:35:29;95009.81;;;2.98;100.00
57801;BME280;43627;42.728;23.256;2023-03-23T03:37:56;94944.97;;;2.42;100.00
57801;BME280;43627;42.728;23.256;2023-03-23T03:40:23;94999.69;;;2.82;100.00
57801;BME280;43627;42.728;23.256;2023-03-23T03:42:49;94950.88;;;2.34;100.00
57801;BME280;43627;42.728;23.256;2023-03-23T03:45:18;94966.88;;;2.68;100.00
57801;BME280;43627;42.728;23.256;2023-03-23T03:47:44;95001.16;;;2.87;100.00
57801;BME280;43627;42.728;23.256;2023-03-23T03:50:10;95006.88;;;2.89;100.00
57801;BME280;43627;42.728;23.256;2023-03-23T03:52:36;95004.25;;;2.85;100.00
57801;BME280;43627;42.728;23.256;2023-03-23T03:55:05;95014.19;;;3.12;100.00
57801;BME280;43627;42.728;23.256;2023-03-23T03:57:32;94969.50;;;2.71;100.00
57801;BME280;43627;42.728;23.256;2023-03-23T03:59:58;95021.69;;;3.01;100.00
57801;BME280;43627;42.728;23.256;2023-03-23T04:02:24;94924.91;;;2.47;100.00
57801;BME280;43627;42.728;23.256;2023-03-23T04:04:50;94955.91;;;2.78;100.00
57801;BME280;43627;42.728;23.256;2023-03-23T04:07:17;94949.13;;;2.70;100.00
57801;BME280;43627;42.728;23.256;2023-03-23T04:09:44;94948.19;;;2.80;100.00
57801;BME280;43627;42.728;23.256;2023-03-23T04:12:16;94878.84;;;2.18;100.00
57801;BME280;43627;42.728;23.256;2023-03-23T04:14:42;95003.00;;;3.13;100.00
57801;BME280;43627;42.728;23.256;2023-03-23T04:17:08;94985.66;;;2.95;100.00
57801;BME280;43627;42.728;23.256;2023-03-23T04:19:36;95011.38;;;3.19;100.00
57801;BME280;43627;42.728;23.256;2023-03-23T04:22:04;94996.50;;;3.11;100.00
57801;BME280;43627;42.728;23.256;2023-03-23T04:24:30;95013.81;;;3.33;100.00
57801;BME280;43627;42.728;23.256;2023-03-23T04:26:58;94930.50;;;2.79;100.00
57801;BME280;43627;42.728;23.256;2023-03-23T04:29:24;95009.94;;;3.34;100.00
57801;BME280;43627;42.728;23.256;2023-03-23T04:31:50;94952.72;;;2.83;100.00
57801;BME280;43627;42.728;23.256;2023-03-23T04:34:18;95022.44;;;3.25;100.00
57801;BME280;43627;42.728;23.256;2023-03-23T04:36:44;95015.91;;;3.22;100.00
57801;BME280;43627;42.728;23.256;2023-03-23T04:39:11;95035.19;;;3.21;100.00
57801;BME280;43627;42.728;23.256;2023-03-23T04:41:37;94914.38;;;2.33;100.00
57801;BME280;43627;42.728;23.256;2023-03-23T04:44:03;94970.66;;;2.47;100.00
57801;BME280;43627;42.728;23.256;2023-03-23T04:46:29;94963.34;;;2.47;100.00
57801;BME280;43627;42.728;23.256;2023-03-23T04:48:56;94976.09;;;2.43;100.00
57801;BME280;43627;42.728;23.256;2023-03-23T04:51:25;95044.75;;;2.78;100.00
57801;BME280;43627;42.728;23.256;2023-03-23T04:53:52;95022.16;;;2.72;100.00
57801;BME280;43627;42.728;23.256;2023-03-23T04:56:18;95030.25;;;2.72;100.00
57801;BME280;43627;42.728;23.256;2023-03-23T04:58:44;94946.16;;;2.14;100.00
57801;BME280;43627;42.728;23.256;2023-03-23T05:01:10;95056.47;;;2.68;100.00
57801;BME280;43627;42.728;23.256;2023-03-23T05:03:42;95022.22;;;2.69;100.00
57801;BME280;43627;42.728;23.256;2023-03-23T05:06:09;95031.75;;;2.73;100.00
57801;BME280;43627;42.728;23.256;2023-03-23T05:08:35;95039.28;;;2.85;100.00
57801;BME280;43627;42.728;23.256;2023-03-23T05:11:04;94958.44;;;2.42;100.00
57801;BME280;43627;42.728;23.256;2023-03-23T05:13:31;95039.78;;;3.00;100.00
57801;BME280;43627;42.728;23.256;2023-03-23T05:15:57;94960.59;;;2.27;100.00
57801;BME280;43627;42.728;23.256;2023-03-23T05:18:23;94999.44;;;2.50;100.00
57801;BME280;43627;42.728;23.256;2023-03-23T05:20:49;95036.69;;;2.78;100.00
57801;BME280;43627;42.728;23.256;2023-03-23T05:23:18;95040.44;;;2.84;100.00
57801;BME280;43627;42.728;23.256;2023-03-23T05:25:53;94929.22;;;2.17;100.00
57801;BME280;43627;42.728;23.256;2023-03-23T05:28:18;95006.00;;;2.72;100.00
57801;BME280;43627;42.728;23.256;2023-03-23T05:30:44;95030.22;;;3.19;100.00
57801;BME280;43627;42.728;23.256;2023-03-23T05:33:09;95044.97;;;3.34;100.00
57801;BME280;43627;42.728;23.256;2023-03-23T05:35:35;95009.09;;;3.18;100.00
57801;BME280;43627;42.728;23.256;2023-03-23T05:38:01;95028.25;;;3.43;100.00
57801;BME280;43627;42.728;23.256;2023-03-23T05:40:27;94980.72;;;3.33;100.00
57801;BME280;43627;42.728;23.256;2023-03-23T05:42:53;95007.44;;;3.83;100.00
57801;BME280;43627;42.728;23.256;2023-03-23T05:45:21;94996.38;;;3.78;100.00
57801;BME280;43627;42.728;23.256;2023-03-23T05:47:48;95067.94;;;4.22;100.00
57801;BME280;43627;42.728;23.256;2023-03-23T05:50:14;94939.13;;;3.34;100.00
57801;BME280;43627;42.728;23.256;2023-03-23T05:52:40;95031.03;;;3.99;100.00
57801;BME280;43627;42.728;23.256;2023-03-23T05:55:06;94985.75;;;3.70;100.00
57801;BME280;43627;42.728;23.256;2023-03-23T05:57:33;95057.13;;;4.22;100.00
57801;BME280;43627;42.728;23.256;2023-03-23T05:59:59;95078.63;;;4.62;100.00
57801;BME280;43627;42.728;23.256;2023-03-23T06:02:25;95056.13;;;4.68;100.00
57801;BME280;43627;42.728;23.256;2023-03-23T06:04:54;95015.34;;;4.63;100.00
57801;BME280;43627;42.728;23.256;2023-03-23T06:07:26;95019.47;;;5.00;100.00
57801;BME280;43627;42.728;23.256;2023-03-23T06:09:52;94971.88;;;4.73;100.00
57801;BME280;43627;42.728;23.256;2023-03-23T06:12:18;94964.97;;;5.18;100.00
57801;BME280;43627;42.728;23.256;2023-03-23T06:14:46;95079.50;;;6.40;100.00
57801;BME280;43627;42.728;23.256;2023-03-23T06:17:14;95079.63;;;6.87;100.00
57801;BME280;43627;42.728;23.256;2023-03-23T06:19:39;95075.81;;;7.10;100.00
57801;BME280;43627;42.728;23.256;2023-03-23T06:22:05;95019.28;;;7.21;100.00
57801;BME280;43627;42.728;23.256;2023-03-23T06:24:31;95085.34;;;7.96;100.00
57801;BME280;43627;42.728;23.256;2023-03-23T06:26:58;95074.22;;;8.25;100.00
57801;BME280;43627;42.728;23.256;2023-03-23T06:29:24;95011.84;;;7.91;100.00
57801;BME280;43627;42.728;23.256;2023-03-23T06:31:56;95093.69;;;8.46;100.00
57801;BME280;43627;42.728;23.256;2023-03-23T06:34:24;95075.09;;;8.44;100.00
57801;BME280;43627;42.728;23.256;2023-03-23T06:36:50;94994.81;;;7.68;100.00
57801;BME280;43627;42.728;23.256;2023-03-23T06:39:15;95024.56;;;8.03;100.00
57801;BME280;43627;42.728;23.256;2023-03-23T06:41:41;95010.59;;;8.14;100.00
57801;BME280;43627;42.728;23.256;2023-03-23T06:44:07;94963.72;;;7.91;100.00
57801;BME280;43627;42.728;23.256;2023-03-23T06:46:34;95078.53;;;8.67;100.00
57801;BME280;43627;42.728;23.256;2023-03-23T06:49:00;95080.41;;;8.48;100.00
57801;BME280;43627;42.728;23.256;2023-03-23T06:51:25;95090.41;;;8.60;100.00
57801;BME280;43627;42.728;23.256;2023-03-23T06:53:51;95093.03;;;8.64;100.00
57801;BME280;43627;42.728;23.256;2023-03-23T06:56:17;95107.81;;;8.63;100.00
57801;BME280;43627;42.728;23.256;2023-03-23T06:58:43;95107.97;;;8.68;100.00
57801;BME280;43627;42.728;23.256;2023-03-23T07:01:10;95110.75;;;8.77;100.00
57801;BME280;43627;42.728;23.256;2023-03-23T07:03:37;95094.53;;;9.05;100.00
57801;BME280;43627;42.728;23.256;2023-03-23T07:06:03;95100.28;;;9.07;100.00
57801;BME280;43627;42.728;23.256;2023-03-23T07:08:29;95101.25;;;9.22;100.00
57801;BME280;43627;42.728;23.256;2023-03-23T07:10:56;95106.44;;;9.38;100.00
57801;BME280;43627;42.728;23.256;2023-03-23T07:13:22;95107.50;;;9.41;100.00
57801;BME280;43627;42.728;23.256;2023-03-23T07:15:48;95105.06;;;9.43;100.00
57801;BME280;43627;42.728;23.256;2023-03-23T07:18:14;95106.09;;;9.27;100.00
57801;BME280;43627;42.728;23.256;2023-03-23T07:20:40;95084.53;;;9.51;100.00
57801;BME280;43627;42.728;23.256;2023-03-23T07:23:06;95097.25;;;9.91;100.00
57801;BME280;43627;42.728;23.256;2023-03-23T07:25:33;95104.66;;;10.18;100.00
57801;BME280;43627;42.728;23.256;2023-03-23T07:28:02;95089.69;;;10.22;100.00
57801;BME280;43627;42.728;23.256;2023-03-23T07:30:28;95092.28;;;10.35;100.00
57801;BME280;43627;42.728;23.256;2023-03-23T07:32:55;95095.44;;;10.43;100.00
57801;BME280;43627;42.728;23.256;2023-03-23T07:35:22;95101.00;;;10.57;100.00
57801;BME280;43627;42.728;23.256;2023-03-23T07:37:48;95081.19;;;10.39;100.00
57801;BME280;43627;42.728;23.256;2023-03-23T07:40:15;95116.47;;;11.03;100.00
57801;BME280;43627;42.728;23.256;2023-03-23T07:42:45;95083.03;;;10.84;100.00
57801;BME280;43627;42.728;23.256;2023-03-23T07:45:12;95104.91;;;11.08;100.00
57801;BME280;43627;42.728;23.256;2023-03-23T07:47:39;95114.09;;;11.53;100.00
57801;BME280;43627;42.728;23.256;2023-03-23T07:50:06;95118.56;;;11.41;100.00
57801;BME280;43627;42.728;23.256;2023-03-23T07:52:34;95115.50;;;11.72;100.00
57801;BME280;43627;42.728;23.256;2023-03-23T07:55:01;95120.00;;;11.27;100.00
57801;BME280;43627;42.728;23.256;2023-03-23T07:57:28;95117.16;;;11.22;100.00
57801;BME280;43627;42.728;23.256;2023-03-23T07:59:54;95091.28;;;11.08;100.00
57801;BME280;43627;42.728;23.256;2023-03-23T08:02:22;95103.56;;;11.36;100.00
57801;BME280;43627;42.728;23.256;2023-03-23T08:04:48;95102.38;;;11.37;100.00
57801;BME280;43627;42.728;23.256;2023-03-23T08:07:14;95117.00;;;11.49;100.00
57801;BME280;43627;42.728;23.256;2023-03-23T08:09:45;95111.00;;;11.36;100.00
57801;BME280;43627;42.728;23.256;2023-03-23T08:12:12;95094.13;;;11.13;100.00
57801;BME280;43627;42.728;23.256;2023-03-23T08:14:37;95092.66;;;11.36;100.00
57801;BME280;43627;42.728;23.256;2023-03-23T08:17:03;95112.63;;;11.42;100.00
57801;BME280;43627;42.728;23.256;2023-03-23T08:19:29;95097.78;;;11.10;100.00
57801;BME280;43627;42.728;23.256;2023-03-23T08:21:55;95106.66;;;11.29;100.00
57801;BME280;43627;42.728;23.256;2023-03-23T08:24:22;95096.53;;;11.44;100.00
57801;BME280;43627;42.728;23.256;2023-03-23T08:26:48;95110.78;;;11.72;100.00
57801;BME280;43627;42.728;23.256;2023-03-23T08:29:13;95121.47;;;11.94;100.00
57801;BME280;43627;42.728;23.256;2023-03-23T08:31:39;95112.88;;;12.01;100.00
57801;BME280;43627;42.728;23.256;2023-03-23T08:34:05;95108.34;;;11.98;96.51
57801;BME280;43627;42.728;23.256;2023-03-23T08:36:32;95117.09;;;12.26;96.33
57801;BME280;43627;42.728;23.256;2023-03-23T08:38:58;95110.97;;;12.32;98.29
57801;BME280;43627;42.728;23.256;2023-03-23T08:41:24;95102.50;;;12.44;90.21
57801;BME280;43627;42.728;23.256;2023-03-23T08:43:50;95095.25;;;12.41;87.63
57801;BME280;43627;42.728;23.256;2023-03-23T08:46:18;95079.38;;;12.30;87.43
57801;BME280;43627;42.728;23.256;2023-03-23T08:48:45;95113.53;;;12.65;87.90
57801;BME280;43627;42.728;23.256;2023-03-23T08:51:12;95094.84;;;12.78;86.32
57801;BME280;43627;42.728;23.256;2023-03-23T08:53:38;95110.31;;;13.10;82.54
57801;BME280;43627;42.728;23.256;2023-03-23T08:56:09;95093.00;;;13.34;73.24
57801;BME280;43627;42.728;23.256;2023-03-23T08:58:37;95106.63;;;13.28;60.51
57801;BME280;43627;42.728;23.256;2023-03-23T09:01:04;95104.91;;;13.31;59.83
57801;BME280;43627;42.728;23.256;2023-03-23T09:03:32;95099.84;;;13.09;56.92
57801;BME280;43627;42.728;23.256;2023-03-23T09:05:59;95093.06;;;12.60;64.59
57801;BME280;43627;42.728;23.256;2023-03-23T09:08:26;95103.72;;;12.87;59.49
57801;BME280;43627;42.728;23.256;2023-03-23T09:10:58;95104.16;;;13.15;63.75
57801;BME280;43627;42.728;23.256;2023-03-23T09:13:24;95100.16;;;13.46;63.13
57801;BME280;43627;42.728;23.256;2023-03-23T09:15:49;95066.47;;;13.25;61.68
57801;BME280;43627;42.728;23.256;2023-03-23T09:18:16;95104.88;;;13.46;59.54
57801;BME280;43627;42.728;23.256;2023-03-23T09:20:42;95081.38;;;12.89;60.28
57801;BME280;43627;42.728;23.256;2023-03-23T09:23:09;95101.94;;;12.70;61.51
57801;BME280;43627;42.728;23.256;2023-03-23T09:25:35;95095.97;;;12.86;61.21
57801;BME280;43627;42.728;23.256;2023-03-23T09:28:00;95096.47;;;12.70;61.67
57801;BME280;43627;42.728;23.256;2023-03-23T09:30:29;95081.06;;;12.87;60.37
57801;BME280;43627;42.728;23.256;2023-03-23T09:32:56;95090.66;;;13.12;60.15
57801;BME280;43627;42.728;23.256;2023-03-23T09:35:23;95058.41;;;13.01;59.51
57801;BME280;43627;42.728;23.256;2023-03-23T09:37:50;95082.47;;;12.97;59.34
57801;BME280;43627;42.728;23.256;2023-03-23T09:40:22;95086.44;;;12.96;58.19
57801;BME280;43627;42.728;23.256;2023-03-23T09:43:23;95074.78;;;12.81;58.96
57801;BME280;43627;42.728;23.256;2023-03-23T09:49:02;95074.47;;;12.94;60.43
57801;BME280;43627;42.728;23.256;2023-03-23T09:51:41;95077.00;;;12.97;59.91
57801;BME280;43627;42.728;23.256;2023-03-23T09:56:54;95064.94;;;13.39;58.81
57801;BME280;43627;42.728;23.256;2023-03-23T09:59:23;95072.75;;;13.87;55.21
57801;BME280;43627;42.728;23.256;2023-03-23T10:01:57;95040.16;;;13.68;55.65
57801;BME280;43627;42.728;23.256;2023-03-23T10:06:56;95058.31;;;14.33;54.93
57801;BME280;43627;42.728;23.256;2023-03-23T10:09:23;95010.06;;;13.94;53.98
57801;BME280;43627;42.728;23.256;2023-03-23T10:14:41;95063.03;;;14.32;52.08
57801;BME280;43627;42.728;23.256;2023-03-23T10:17:13;95058.94;;;14.22;52.67
57801;BME280;43627;42.728;23.256;2023-03-23T10:22:39;95060.19;;;14.00;54.01
57801;BME280;43627;42.728;23.256;2023-03-23T10:27:59;95065.44;;;13.37;54.46
57801;BME280;43627;42.728;23.256;2023-03-23T10:35:23;95025.13;;;14.05;51.38
57801;BME280;43627;42.728;23.256;2023-03-23T10:37:59;95052.28;;;14.28;51.41
57801;BME280;43627;42.728;23.256;2023-03-23T10:40:29;94999.47;;;14.34;50.62
57801;BME280;43627;42.728;23.256;2023-03-23T10:42:56;95070.25;;;14.81;50.21
57801;BME280;43627;42.728;23.256;2023-03-23T10:45:24;94991.78;;;13.86;50.93
57801;BME280;43627;42.728;23.256;2023-03-23T10:48:14;95057.66;;;14.17;50.42
57801;BME280;43627;42.728;23.256;2023-03-23T10:50:41;95036.53;;;14.23;49.34
57801;BME280;43627;42.728;23.256;2023-03-23T10:53:19;95026.09;;;14.27;50.08
57801;BME280;43627;42.728;23.256;2023-03-23T10:55:46;95014.31;;;14.21;49.78
57801;BME280;43627;42.728;23.256;2023-03-23T10:58:23;95027.78;;;13.99;50.83
57801;BME280;43627;42.728;23.256;2023-03-23T11:00:50;95025.97;;;13.70;51.05
57801;BME280;43627;42.728;23.256;2023-03-23T11:05:48;95014.28;;;13.14;52.73
57801;BME280;43627;42.728;23.256;2023-03-23T11:11:38;95039.38;;;13.88;51.71
57801;BME280;43627;42.728;23.256;2023-03-23T11:16:54;95019.91;;;14.07;51.93
57801;BME280;43627;42.728;23.256;2023-03-23T11:19:28;95003.84;;;13.94;51.10
57801;BME280;43627;42.728;23.256;2023-03-23T11:22:31;95033.53;;;14.21;50.40
57801;BME280;43627;42.728;23.256;2023-03-23T11:25:03;95022.59;;;14.27;50.74
57801;BME280;43627;42.728;23.256;2023-03-23T11:27:30;95010.31;;;14.48;52.25
57801;BME280;43627;42.728;23.256;2023-03-23T11:30:08;95011.66;;;14.58;51.64
57801;BME280;43627;42.728;23.256;2023-03-23T11:32:34;95008.72;;;14.62;49.41
57801;BME280;43627;42.728;23.256;2023-03-23T11:35:05;95001.88;;;14.26;50.38
57801;BME280;43627;42.728;23.256;2023-03-23T11:37:45;95006.34;;;13.97;50.45
57801;BME280;43627;42.728;23.256;2023-03-23T11:40:24;95008.94;;;14.07;50.19
57801;BME280;43627;42.728;23.256;2023-03-23T11:43:00;95004.28;;;14.70;48.97
57801;BME280;43627;42.728;23.256;2023-03-23T11:45:41;94966.53;;;14.60;48.46
57801;BME280;43627;42.728;23.256;2023-03-23T11:48:47;94991.69;;;14.90;48.85
57801;BME280;43627;42.728;23.256;2023-03-23T11:51:30;94992.84;;;14.77;48.65
57801;BME280;43627;42.728;23.256;2023-03-23T11:54:17;95000.22;;;14.60;49.36
57801;BME280;43627;42.728;23.256;2023-03-23T11:56:46;94911.16;;;14.29;48.63
57801;BME280;43627;42.728;23.256;2023-03-23T11:59:17;94897.59;;;14.46;48.75
57801;BME280;43627;42.728;23.256;2023-03-23T12:12:08;94982.66;;;15.26;48.56
57801;BME280;43627;42.728;23.256;2023-03-23T12:14:53;94974.31;;;15.58;47.39
57801;BME280;43627;42.728;23.256;2023-03-23T12:17:33;94967.56;;;15.59;45.62
57801;BME280;43627;42.728;23.256;2023-03-23T12:36:36;94970.50;;;15.44;45.07
57801;BME280;43627;42.728;23.256;2023-03-23T12:42:03;94957.13;;;15.68;45.70
57801;BME280;43627;42.728;23.256;2023-03-23T12:44:53;94953.19;;;15.86;44.97
57801;BME280;43627;42.728;23.256;2023-03-23T12:47:57;94943.53;;;15.48;45.54
57801;BME280;43627;42.728;23.256;2023-03-23T12:53:21;94895.31;;;14.82;47.29
57801;BME280;43627;42.728;23.256;2023-03-23T12:56:02;94943.22;;;15.29;46.91
57801;BME280;43627;42.728;23.256;2023-03-23T12:58:34;94856.66;;;14.85;46.62
57801;BME280;43627;42.728;23.256;2023-03-23T13:01:08;94942.44;;;15.94;45.91
57801;BME280;43627;42.728;23.256;2023-03-23T13:03:47;94936.47;;;16.40;44.71
57801;BME280;43627;42.728;23.256;2023-03-23T13:06:37;94901.19;;;16.27;44.44
57801;BME280;43627;42.728;23.256;2023-03-23T13:11:40;94846.69;;;14.94;45.13
57801;BME280;43627;42.728;23.256;2023-03-23T13:25:01;94873.94;;;15.79;43.84
57801;BME280;43627;42.728;23.256;2023-03-23T13:27:29;94872.22;;;16.21;42.99
57801;BME280;43627;42.728;23.256;2023-03-23T13:29:56;94930.16;;;17.01;42.92
57801;BME280;43627;42.728;23.256;2023-03-23T13:32:39;94857.16;;;16.50;42.20
57801;BME280;43627;42.728;23.256;2023-03-23T13:35:12;94906.94;;;16.80;42.17
57801;BME280;43627;42.728;23.256;2023-03-23T13:37:51;94896.16;;;16.82;42.53
57801;BME280;43627;42.728;23.256;2023-03-23T13:40:25;94911.94;;;16.65;42.94
57801;BME280;43627;42.728;23.256;2023-03-23T13:42:58;94910.69;;;15.98;42.95
57801;BME280;43627;42.728;23.256;2023-03-23T13:48:19;94836.63;;;15.45;44.17
57801;BME280;43627;42.728;23.256;2023-03-23T13:50:57;94903.19;;;15.88;43.92
57801;BME280;43627;42.728;23.256;2023-03-23T13:53:47;94863.44;;;15.94;43.71
57801;BME280;43627;42.728;23.256;2023-03-23T13:56:32;94804.72;;;15.86;43.36
57801;BME280;43627;42.728;23.256;2023-03-23T13:59:16;94869.44;;;16.43;42.69
57801;BME280;43627;42.728;23.256;2023-03-23T14:01:43;94895.13;;;16.85;43.05
57801;BME280;43627;42.728;23.256;2023-03-23T14:04:17;94823.94;;;16.31;42.78
57801;BME280;43627;42.728;23.256;2023-03-23T14:06:45;94908.19;;;16.17;43.75
57801;BME280;43627;42.728;23.256;2023-03-23T14:09:26;94835.13;;;15.38;44.76
57801;BME280;43627;42.728;23.256;2023-03-23T14:12:05;94851.81;;;15.29;44.25
57801;BME280;43627;42.728;23.256;2023-03-23T14:14:47;94888.44;;;15.74;44.17
57801;BME280;43627;42.728;23.256;2023-03-23T14:17:23;94914.44;;;16.18;43.01
57801;BME280;43627;42.728;23.256;2023-03-23T14:19:52;94835.94;;;15.72;43.46
57801;BME280;43627;42.728;23.256;2023-03-23T14:22:23;94884.94;;;16.35;44.13
57801;BME280;43627;42.728;23.256;2023-03-23T14:24:50;94906.44;;;16.20;43.11
57801;BME280;43627;42.728;23.256;2023-03-23T14:27:19;94823.94;;;15.64;43.28
57801;BME280;43627;42.728;23.256;2023-03-23T14:30:05;94846.72;;;16.04;43.20
57801;BME280;43627;42.728;23.256;2023-03-23T14:32:33;94869.19;;;16.36;42.59
57801;BME280;43627;42.728;23.256;2023-03-23T14:35:04;94890.38;;;16.85;42.29
57801;BME280;43627;42.728;23.256;2023-03-23T14:37:32;94883.19;;;16.49;43.49
57801;BME280;43627;42.728;23.256;2023-03-23T14:40:01;94897.19;;;15.89;43.55
57801;BME280;43627;42.728;23.256;2023-03-23T14:42:34;94885.19;;;15.76;43.66
57801;BME280;43627;42.728;23.256;2023-03-23T14:45:03;94885.69;;;16.08;43.37